<?xml version="1.0" encoding="UTF-8" standalone="no" ?>
<gpx xmlns="http://www.topografix.com/GPX/1/1" xmlns:xsi="http://www.w3.org/2001/XMLSchema-instance" xsi:schemaLocation="http://www.topografix.com/GPX/1/1 http://www.topografix.com/GPX/1/1/gpx.xsd" version="1.1" creator="VisuGPX - https://www.visugpx.com">
  <metadata>
    <name>Traces DPT 33</name>
    <desc><![CDATA[Total: 12.2km]]></desc>
  </metadata>
  <trk>
    <name><![CDATA[NewTrack]]></name>
    <desc><![CDATA[Total: 12.2km]]></desc>
    <extensions>
      <line xmlns="http://www.topografix.com/GPX/gpx_style/0/2">
        <color>0000FF</color>
        <width>4</width>
      </line>
    </extensions>
    <trkseg>
      <trkpt lat="44.73796" lon="-0.1629">
        <ele>61.8</ele>
        <time>2016-01-27T10:39:06Z</time>
      </trkpt>
      <trkpt lat="44.73771" lon="-0.16395">
        <ele>58.5</ele>
        <time>2016-01-27T10:39:27Z</time>
      </trkpt>
      <trkpt lat="44.7375" lon="-0.16512">
        <ele>51.6</ele>
        <time>2016-01-27T10:39:50Z</time>
      </trkpt>
      <trkpt lat="44.73744" lon="-0.1657">
        <ele>49.7</ele>
        <time>2016-01-27T10:40:01Z</time>
      </trkpt>
      <trkpt lat="44.73756" lon="-0.1673">
        <ele>46.6</ele>
        <time>2016-01-27T10:40:31Z</time>
      </trkpt>
      <trkpt lat="44.73728" lon="-0.16877">
        <ele>40.2</ele>
        <time>2016-01-27T10:41:00Z</time>
      </trkpt>
      <trkpt lat="44.73746" lon="-0.16963">
        <ele>39</ele>
        <time>2016-01-27T10:41:17Z</time>
      </trkpt>
      <trkpt lat="44.73776" lon="-0.17033">
        <ele>35.2</ele>
        <time>2016-01-27T10:41:33Z</time>
      </trkpt>
      <trkpt lat="44.73836" lon="-0.17033">
        <ele>36.2</ele>
        <time>2016-01-27T10:41:49Z</time>
      </trkpt>
      <trkpt lat="44.73879" lon="-0.17036">
        <ele>32.8</ele>
        <time>2016-01-27T10:42:00Z</time>
      </trkpt>
      <trkpt lat="44.73905" lon="-0.17087">
        <ele>27.4</ele>
        <time>2016-01-27T10:42:12Z</time>
      </trkpt>
      <trkpt lat="44.7392" lon="-0.17149">
        <ele>27.4</ele>
        <time>2016-01-27T10:42:25Z</time>
      </trkpt>
      <trkpt lat="44.74032" lon="-0.17153">
        <ele>26.9</ele>
        <time>2016-01-27T10:42:55Z</time>
      </trkpt>
      <trkpt lat="44.74145" lon="-0.17174">
        <ele>28.2</ele>
        <time>2016-01-27T10:43:25Z</time>
      </trkpt>
      <trkpt lat="44.74328" lon="-0.17175">
        <ele>29.9</ele>
        <time>2016-01-27T10:44:14Z</time>
      </trkpt>
      <trkpt lat="44.74409" lon="-0.17205">
        <ele>32.2</ele>
        <time>2016-01-27T10:44:36Z</time>
      </trkpt>
      <trkpt lat="44.74472" lon="-0.17266">
        <ele>29.6</ele>
        <time>2016-01-27T10:44:57Z</time>
      </trkpt>
      <trkpt lat="44.7463" lon="-0.17501">
        <ele>28.7</ele>
        <time>2016-01-27T10:45:58Z</time>
      </trkpt>
      <trkpt lat="44.74702" lon="-0.17562">
        <ele>27</ele>
        <time>2016-01-27T10:46:20Z</time>
      </trkpt>
      <trkpt lat="44.74789" lon="-0.17588">
        <ele>25.1</ele>
        <time>2016-01-27T10:46:44Z</time>
      </trkpt>
      <trkpt lat="44.75024" lon="-0.17655">
        <ele>23.2</ele>
        <time>2016-01-27T10:47:48Z</time>
      </trkpt>
      <trkpt lat="44.75173" lon="-0.17697">
        <ele>24</ele>
        <time>2016-01-27T10:48:28Z</time>
      </trkpt>
      <trkpt lat="44.75435" lon="-0.17702">
        <ele>23.3</ele>
        <time>2016-01-27T10:49:38Z</time>
      </trkpt>
      <trkpt lat="44.7565" lon="-0.17704">
        <ele>24.3</ele>
        <time>2016-01-27T10:50:36Z</time>
      </trkpt>
      <trkpt lat="44.75739" lon="-0.17724">
        <ele>23.5</ele>
        <time>2016-01-27T10:51:00Z</time>
      </trkpt>
      <trkpt lat="44.75827" lon="-0.1777">
        <ele>22.5</ele>
        <time>2016-01-27T10:51:25Z</time>
      </trkpt>
      <trkpt lat="44.75963" lon="-0.1783">
        <ele>21.9</ele>
        <time>2016-01-27T10:52:03Z</time>
      </trkpt>
      <trkpt lat="44.76061" lon="-0.17826">
        <ele>21.1</ele>
        <time>2016-01-27T10:52:29Z</time>
      </trkpt>
      <trkpt lat="44.76149" lon="-0.17779">
        <ele>20.4</ele>
        <time>2016-01-27T10:52:54Z</time>
      </trkpt>
      <trkpt lat="44.76305" lon="-0.17639">
        <ele>18</ele>
        <time>2016-01-27T10:53:44Z</time>
      </trkpt>
      <trkpt lat="44.76391" lon="-0.17587">
        <ele>17.2</ele>
        <time>2016-01-27T10:54:09Z</time>
      </trkpt>
      <trkpt lat="44.76474" lon="-0.17584">
        <ele>20</ele>
        <time>2016-01-27T10:54:31Z</time>
      </trkpt>
      <trkpt lat="44.76543" lon="-0.17584">
        <ele>20</ele>
        <time>2016-01-27T10:54:49Z</time>
      </trkpt>
      <trkpt lat="44.76612" lon="-0.17594">
        <ele>20.3</ele>
        <time>2016-01-27T10:55:08Z</time>
      </trkpt>
      <trkpt lat="44.76647" lon="-0.17253">
        <ele>19.9</ele>
        <time>2016-01-27T10:56:13Z</time>
      </trkpt>
      <trkpt lat="44.76672" lon="-0.1722">
        <ele>24.4</ele>
        <time>2016-01-27T10:56:22Z</time>
      </trkpt>
      <trkpt lat="44.76725" lon="-0.17218">
        <ele>27.2</ele>
        <time>2016-01-27T10:56:36Z</time>
      </trkpt>
      <trkpt lat="44.76772" lon="-0.17232">
        <ele>28.4</ele>
        <time>2016-01-27T10:56:49Z</time>
      </trkpt>
      <trkpt lat="44.7677" lon="-0.17245">
        <ele>26.6</ele>
        <time>2016-01-27T10:56:52Z</time>
      </trkpt>
      <trkpt lat="44.7684" lon="-0.17262">
        <ele>26.7</ele>
        <time>2016-01-27T10:57:11Z</time>
      </trkpt>
      <trkpt lat="44.76877" lon="-0.17246">
        <ele>26.4</ele>
        <time>2016-01-27T10:57:21Z</time>
      </trkpt>
      <trkpt lat="44.76915" lon="-0.17203">
        <ele>23.1</ele>
        <time>2016-01-27T10:57:34Z</time>
      </trkpt>
      <trkpt lat="44.7695" lon="-0.17173">
        <ele>22.9</ele>
        <time>2016-01-27T10:57:45Z</time>
      </trkpt>
      <trkpt lat="44.7699" lon="-0.17176">
        <ele>25.7</ele>
        <time>2016-01-27T10:57:55Z</time>
      </trkpt>
      <trkpt lat="44.77129" lon="-0.17161">
        <ele>35</ele>
        <time>2016-01-27T10:58:33Z</time>
      </trkpt>
      <trkpt lat="44.77255" lon="-0.17187">
        <ele>27.6</ele>
        <time>2016-01-27T10:59:07Z</time>
      </trkpt>
      <trkpt lat="44.77341" lon="-0.17157">
        <ele>23.1</ele>
        <time>2016-01-27T10:59:30Z</time>
      </trkpt>
      <trkpt lat="44.77486" lon="-0.16974">
        <ele>18.9</ele>
        <time>2016-01-27T11:00:22Z</time>
      </trkpt>
      <trkpt lat="44.77393" lon="-0.16898">
        <ele>35.6</ele>
        <time>2016-01-27T11:00:51Z</time>
      </trkpt>
      <trkpt lat="44.77347" lon="-0.16874">
        <ele>43.2</ele>
        <time>2016-01-27T11:01:04Z</time>
      </trkpt>
      <trkpt lat="44.77306" lon="-0.16836">
        <ele>50.7</ele>
        <time>2016-01-27T11:01:17Z</time>
      </trkpt>
      <trkpt lat="44.77288" lon="-0.16836">
        <ele>51.5</ele>
        <time>2016-01-27T11:01:22Z</time>
      </trkpt>
      <trkpt lat="44.77258" lon="-0.16866">
        <ele>53.1</ele>
        <time>2016-01-27T11:01:32Z</time>
      </trkpt>
      <trkpt lat="44.77236" lon="-0.16874">
        <ele>55</ele>
        <time>2016-01-27T11:01:38Z</time>
      </trkpt>
      <trkpt lat="44.77219" lon="-0.16863">
        <ele>56.3</ele>
        <time>2016-01-27T11:01:43Z</time>
      </trkpt>
      <trkpt lat="44.77208" lon="-0.16837">
        <ele>56.2</ele>
        <time>2016-01-27T11:01:48Z</time>
      </trkpt>
      <trkpt lat="44.77201" lon="-0.1681">
        <ele>56.5</ele>
        <time>2016-01-27T11:01:54Z</time>
      </trkpt>
      <trkpt lat="44.7723" lon="-0.16693">
        <ele>57.7</ele>
        <time>2016-01-27T11:02:17Z</time>
      </trkpt>
      <trkpt lat="44.77184" lon="-0.16608">
        <ele>59.2</ele>
        <time>2016-01-27T11:02:38Z</time>
      </trkpt>
      <trkpt lat="44.772" lon="-0.16579">
        <ele>56.1</ele>
        <time>2016-01-27T11:02:45Z</time>
      </trkpt>
      <trkpt lat="44.77171" lon="-0.16508">
        <ele>54.1</ele>
        <time>2016-01-27T11:03:00Z</time>
      </trkpt>
      <trkpt lat="44.77157" lon="-0.16441">
        <ele>51.9</ele>
        <time>2016-01-27T11:03:14Z</time>
      </trkpt>
      <trkpt lat="44.77132" lon="-0.16435">
        <ele>54.2</ele>
        <time>2016-01-27T11:03:20Z</time>
      </trkpt>
      <trkpt lat="44.77106" lon="-0.16457">
        <ele>56.7</ele>
        <time>2016-01-27T11:03:28Z</time>
      </trkpt>
      <trkpt lat="44.77025" lon="-0.16539">
        <ele>63</ele>
        <time>2016-01-27T11:03:55Z</time>
      </trkpt>
      <trkpt lat="44.7694" lon="-0.16658">
        <ele>60.8</ele>
        <time>2016-01-27T11:04:27Z</time>
      </trkpt>
      <trkpt lat="44.76772" lon="-0.16615">
        <ele>58.9</ele>
        <time>2016-01-27T11:05:12Z</time>
      </trkpt>
      <trkpt lat="44.76761" lon="-0.16567">
        <ele>59.6</ele>
        <time>2016-01-27T11:05:22Z</time>
      </trkpt>
      <trkpt lat="44.7676" lon="-0.16506">
        <ele>60.8</ele>
        <time>2016-01-27T11:05:34Z</time>
      </trkpt>
      <trkpt lat="44.76686" lon="-0.16464">
        <ele>59.2</ele>
        <time>2016-01-27T11:05:55Z</time>
      </trkpt>
      <trkpt lat="44.767" lon="-0.16336">
        <ele>64.2</ele>
        <time>2016-01-27T11:06:20Z</time>
      </trkpt>
      <trkpt lat="44.76696" lon="-0.16263">
        <ele>66.5</ele>
        <time>2016-01-27T11:06:33Z</time>
      </trkpt>
      <trkpt lat="44.76689" lon="-0.16046">
        <ele>69.2</ele>
        <time>2016-01-27T11:07:15Z</time>
      </trkpt>
      <trkpt lat="44.7673" lon="-0.15855">
        <ele>66.7</ele>
        <time>2016-01-27T11:07:53Z</time>
      </trkpt>
      <trkpt lat="44.76686" lon="-0.15873">
        <ele>68.6</ele>
        <time>2016-01-27T11:08:05Z</time>
      </trkpt>
      <trkpt lat="44.76653" lon="-0.15783">
        <ele>71.4</ele>
        <time>2016-01-27T11:08:24Z</time>
      </trkpt>
      <trkpt lat="44.76631" lon="-0.15686">
        <ele>74.4</ele>
        <time>2016-01-27T11:08:43Z</time>
      </trkpt>
      <trkpt lat="44.76603" lon="-0.15436">
        <ele>79.3</ele>
        <time>2016-01-27T11:09:31Z</time>
      </trkpt>
      <trkpt lat="44.76586" lon="-0.15151">
        <ele>81</ele>
        <time>2016-01-27T11:10:26Z</time>
      </trkpt>
      <trkpt lat="44.76564" lon="-0.1514">
        <ele>80.3</ele>
        <time>2016-01-27T11:10:32Z</time>
      </trkpt>
      <trkpt lat="44.76544" lon="-0.14791">
        <ele>81.6</ele>
        <time>2016-01-27T11:11:38Z</time>
      </trkpt>
      <trkpt lat="44.76496" lon="-0.14789">
        <ele>79.8</ele>
        <time>2016-01-27T11:11:51Z</time>
      </trkpt>
      <trkpt lat="44.76408" lon="-0.14775">
        <ele>77.7</ele>
        <time>2016-01-27T11:12:15Z</time>
      </trkpt>
      <trkpt lat="44.76317" lon="-0.14805">
        <ele>74.4</ele>
        <time>2016-01-27T11:12:40Z</time>
      </trkpt>
      <trkpt lat="44.76226" lon="-0.14841">
        <ele>69.9</ele>
        <time>2016-01-27T11:13:05Z</time>
      </trkpt>
      <trkpt lat="44.76114" lon="-0.14862">
        <ele>65.2</ele>
        <time>2016-01-27T11:13:35Z</time>
      </trkpt>
      <trkpt lat="44.76109" lon="-0.14957">
        <ele>63.8</ele>
        <time>2016-01-27T11:13:53Z</time>
      </trkpt>
      <trkpt lat="44.76137" lon="-0.15159">
        <ele>65.9</ele>
        <time>2016-01-27T11:14:33Z</time>
      </trkpt>
      <trkpt lat="44.76104" lon="-0.15157">
        <ele>63.8</ele>
        <time>2016-01-27T11:14:41Z</time>
      </trkpt>
      <trkpt lat="44.76072" lon="-0.15164">
        <ele>62.1</ele>
        <time>2016-01-27T11:14:50Z</time>
      </trkpt>
      <trkpt lat="44.76046" lon="-0.15197">
        <ele>60.3</ele>
        <time>2016-01-27T11:14:59Z</time>
      </trkpt>
      <trkpt lat="44.7601" lon="-0.15313">
        <ele>56.5</ele>
        <time>2016-01-27T11:15:24Z</time>
      </trkpt>
      <trkpt lat="44.75999" lon="-0.15397">
        <ele>55.3</ele>
        <time>2016-01-27T11:15:40Z</time>
      </trkpt>
      <trkpt lat="44.75961" lon="-0.15504">
        <ele>55.8</ele>
        <time>2016-01-27T11:16:02Z</time>
      </trkpt>
      <trkpt lat="44.75906" lon="-0.15578">
        <ele>53.5</ele>
        <time>2016-01-27T11:16:23Z</time>
      </trkpt>
      <trkpt lat="44.75828" lon="-0.15721">
        <ele>48.1</ele>
        <time>2016-01-27T11:16:57Z</time>
      </trkpt>
      <trkpt lat="44.75755" lon="-0.15781">
        <ele>44.1</ele>
        <time>2016-01-27T11:17:19Z</time>
      </trkpt>
      <trkpt lat="44.75682" lon="-0.15827">
        <ele>45.6</ele>
        <time>2016-01-27T11:17:41Z</time>
      </trkpt>
      <trkpt lat="44.75646" lon="-0.15863">
        <ele>44.9</ele>
        <time>2016-01-27T11:17:52Z</time>
      </trkpt>
      <trkpt lat="44.75642" lon="-0.15911">
        <ele>44.9</ele>
        <time>2016-01-27T11:18:02Z</time>
      </trkpt>
      <trkpt lat="44.75631" lon="-0.15933">
        <ele>43.2</ele>
        <time>2016-01-27T11:18:07Z</time>
      </trkpt>
      <trkpt lat="44.75614" lon="-0.15942">
        <ele>40.4</ele>
        <time>2016-01-27T11:18:12Z</time>
      </trkpt>
      <trkpt lat="44.75577" lon="-0.15935">
        <ele>38.4</ele>
        <time>2016-01-27T11:18:22Z</time>
      </trkpt>
      <trkpt lat="44.75515" lon="-0.15954">
        <ele>40.3</ele>
        <time>2016-01-27T11:18:39Z</time>
      </trkpt>
      <trkpt lat="44.75502" lon="-0.16092">
        <ele>44</ele>
        <time>2016-01-27T11:19:05Z</time>
      </trkpt>
      <trkpt lat="44.75479" lon="-0.16107">
        <ele>48.2</ele>
        <time>2016-01-27T11:19:12Z</time>
      </trkpt>
      <trkpt lat="44.75419" lon="-0.16069">
        <ele>55.5</ele>
        <time>2016-01-27T11:19:29Z</time>
      </trkpt>
      <trkpt lat="44.75332" lon="-0.1606">
        <ele>61</ele>
        <time>2016-01-27T11:19:52Z</time>
      </trkpt>
      <trkpt lat="44.75252" lon="-0.16076">
        <ele>64.2</ele>
        <time>2016-01-27T11:20:14Z</time>
      </trkpt>
      <trkpt lat="44.75195" lon="-0.16103">
        <ele>65.3</ele>
        <time>2016-01-27T11:20:30Z</time>
      </trkpt>
      <trkpt lat="44.75173" lon="-0.16081">
        <ele>65.3</ele>
        <time>2016-01-27T11:20:37Z</time>
      </trkpt>
      <trkpt lat="44.75133" lon="-0.16092">
        <ele>65.3</ele>
        <time>2016-01-27T11:20:48Z</time>
      </trkpt>
      <trkpt lat="44.75128" lon="-0.16062">
        <ele>64.7</ele>
        <time>2016-01-27T11:20:54Z</time>
      </trkpt>
      <trkpt lat="44.74987" lon="-0.16109">
        <ele>60.2</ele>
        <time>2016-01-27T11:21:33Z</time>
      </trkpt>
      <trkpt lat="44.74846" lon="-0.1616">
        <ele>63.3</ele>
        <time>2016-01-27T11:22:11Z</time>
      </trkpt>
      <trkpt lat="44.74732" lon="-0.16252">
        <ele>66</ele>
        <time>2016-01-27T11:22:47Z</time>
      </trkpt>
      <trkpt lat="44.74636" lon="-0.16343">
        <ele>65.8</ele>
        <time>2016-01-27T11:23:17Z</time>
      </trkpt>
      <trkpt lat="44.74563" lon="-0.16535">
        <ele>63.5</ele>
        <time>2016-01-27T11:23:59Z</time>
      </trkpt>
      <trkpt lat="44.74532" lon="-0.16581">
        <ele>63.1</ele>
        <time>2016-01-27T11:24:11Z</time>
      </trkpt>
      <trkpt lat="44.74494" lon="-0.16606">
        <ele>62</ele>
        <time>2016-01-27T11:24:22Z</time>
      </trkpt>
      <trkpt lat="44.74453" lon="-0.16614">
        <ele>60.2</ele>
        <time>2016-01-27T11:24:33Z</time>
      </trkpt>
      <trkpt lat="44.74367" lon="-0.1661">
        <ele>59</ele>
        <time>2016-01-27T11:24:56Z</time>
      </trkpt>
      <trkpt lat="44.74225" lon="-0.16544">
        <ele>55.1</ele>
        <time>2016-01-27T11:25:36Z</time>
      </trkpt>
      <trkpt lat="44.74101" lon="-0.16513">
        <ele>50.1</ele>
        <time>2016-01-27T11:26:09Z</time>
      </trkpt>
      <trkpt lat="44.73982" lon="-0.16489">
        <ele>52.4</ele>
        <time>2016-01-27T11:26:41Z</time>
      </trkpt>
      <trkpt lat="44.73865" lon="-0.16474">
        <ele>57.8</ele>
        <time>2016-01-27T11:27:13Z</time>
      </trkpt>
      <trkpt lat="44.73756" lon="-0.16487">
        <ele>53.5</ele>
        <time>2016-01-27T11:27:42Z</time>
      </trkpt>
    </trkseg>
  </trk>
</gpx>